EIN18A KLAX-EIDW
Flight info
| Callsign | EIN18A |
|---|---|
| Flight time | N/A |
| Altitude | 38000 |
| Route | KLAX OSHNN1 BEALE DCT EEVUN DCT BCE DCT MBW DCT RAP DCT KP06A DCT MISAX DCT PELEE DCT BROME DCT LOMSI DCT 55N050W DCT 57N040W DCT 58N030W DCT 56N020W DCT PIKIL DCT SOVED DCT REVNU DCT OLAPO OLAP3R EIDW |
| Aircraft | A339/H-L/MCDU |
Departure
| Time | 2026-04-22 00:31 |
|---|---|
| Airport | Los Angeles International Airport (KLAX) |
Arrival
| Time | N/A |
|---|---|
| Airport | Dublin Airport (EIDW) |
| Time | Latitude | Longitude | Altitude | Speed | Heading |
|---|---|---|---|---|---|
| 2026-04-22 00:03 | 33.94523 | -118.41157 | 131 ft | 0 kts | 99° |
| 2026-04-22 00:14 | 33.94526 | -118.41176 | 125 ft | 4 kts | 99° |
| 2026-04-22 00:15 | 33.94530 | -118.41206 | 131 ft | 4 kts | 99° |
| 2026-04-22 00:15 | 33.94533 | -118.41238 | 131 ft | 4 kts | 110° |
| 2026-04-22 00:15 | 33.94548 | -118.41262 | 128 ft | 4 kts | 165° |
| 2026-04-22 00:15 | 33.94566 | -118.41266 | 131 ft | 0 kts | 173° |
| 2026-04-22 00:18 | 33.94556 | -118.41265 | 130 ft | 5 kts | 173° |
| 2026-04-22 00:18 | 33.94515 | -118.41259 | 129 ft | 6 kts | 173° |
| 2026-04-22 00:18 | 33.94469 | -118.41252 | 129 ft | 8 kts | 172° |
| 2026-04-22 00:19 | 33.94404 | -118.41241 | 129 ft | 10 kts | 172° |
| 2026-04-22 00:19 | 33.94336 | -118.41230 | 129 ft | 10 kts | 174° |
| 2026-04-22 00:19 | 33.94267 | -118.41221 | 130 ft | 10 kts | 173° |
| 2026-04-22 00:19 | 33.94198 | -118.41211 | 130 ft | 10 kts | 173° |
| 2026-04-22 00:20 | 33.94127 | -118.41200 | 128 ft | 10 kts | 172° |
| 2026-04-22 00:20 | 33.94046 | -118.41189 | 129 ft | 13 kts | 174° |
| 2026-04-22 00:20 | 33.93946 | -118.41175 | 130 ft | 16 kts | 173° |
| 2026-04-22 00:20 | 33.93829 | -118.41158 | 127 ft | 18 kts | 173° |
| 2026-04-22 00:21 | 33.93784 | -118.41143 | 126 ft | 6 kts | 150° |
| 2026-04-22 00:21 | 33.93770 | -118.41065 | 125 ft | 11 kts | 83° |
| 2026-04-22 00:21 | 33.93779 | -118.40971 | 131 ft | 12 kts | 83° |
| 2026-04-22 00:21 | 33.93791 | -118.40849 | 131 ft | 17 kts | 82° |
| 2026-04-22 00:22 | 33.93808 | -118.40702 | 131 ft | 18 kts | 82° |
| 2026-04-22 00:22 | 33.93823 | -118.40553 | 123 ft | 18 kts | 84° |
| 2026-04-22 00:22 | 33.93836 | -118.40405 | 127 ft | 18 kts | 84° |
| 2026-04-22 00:22 | 33.93852 | -118.40252 | 126 ft | 18 kts | 83° |
| 2026-04-22 00:23 | 33.93868 | -118.40100 | 123 ft | 18 kts | 83° |
| 2026-04-22 00:23 | 33.93884 | -118.39946 | 123 ft | 19 kts | 83° |
| 2026-04-22 00:23 | 33.93899 | -118.39791 | 124 ft | 19 kts | 83° |
| 2026-04-22 00:23 | 33.93916 | -118.39634 | 131 ft | 19 kts | 82° |
| 2026-04-22 00:24 | 33.93933 | -118.39480 | 131 ft | 19 kts | 82° |
| 2026-04-22 00:24 | 33.93949 | -118.39322 | 131 ft | 19 kts | 83° |
| 2026-04-22 00:24 | 33.93964 | -118.39164 | 124 ft | 19 kts | 84° |
| 2026-04-22 00:24 | 33.93980 | -118.39005 | 131 ft | 19 kts | 83° |
| 2026-04-22 00:25 | 33.93997 | -118.38846 | 131 ft | 19 kts | 83° |
| 2026-04-22 00:25 | 33.94011 | -118.38705 | 123 ft | 16 kts | 83° |
| 2026-04-22 00:25 | 33.94025 | -118.38567 | 125 ft | 17 kts | 83° |
| 2026-04-22 00:25 | 33.94039 | -118.38428 | 123 ft | 17 kts | 83° |
| 2026-04-22 00:26 | 33.94054 | -118.38288 | 123 ft | 17 kts | 83° |
| 2026-04-22 00:26 | 33.94065 | -118.38184 | 131 ft | 0 kts | 83° |
| 2026-04-22 00:26 | 33.94067 | -118.38162 | 131 ft | 5 kts | 83° |
| 2026-04-22 00:26 | 33.94071 | -118.38121 | 127 ft | 5 kts | 83° |
| 2026-04-22 00:27 | 33.94074 | -118.38089 | 131 ft | 3 kts | 83° |
| 2026-04-22 00:27 | 33.94077 | -118.38063 | 131 ft | 3 kts | 83° |
| 2026-04-22 00:27 | 33.94074 | -118.38035 | 131 ft | 3 kts | 100° |
| 2026-04-22 00:27 | 33.94071 | -118.38028 | 131 ft | 0 kts | 110° |
| 2026-04-22 00:28 | 33.94070 | -118.38027 | 131 ft | 1 kts | 110° |
| 2026-04-22 00:28 | 33.94040 | -118.38001 | 124 ft | 9 kts | 152° |
| 2026-04-22 00:29 | 33.93992 | -118.38007 | 128 ft | 4 kts | 206° |
| 2026-04-22 00:29 | 33.93985 | -118.38032 | 128 ft | 3 kts | 253° |
| 2026-04-22 00:29 | 33.93985 | -118.38044 | 129 ft | 0 kts | 263° |
| 2026-04-22 00:30 | 33.93979 | -118.38100 | 131 ft | 31 kts | 263° |
| 2026-04-22 00:30 | 33.93919 | -118.38671 | 131 ft | 104 kts | 263° |
| 2026-04-22 00:30 | 33.93804 | -118.39775 | 135 ft | 158 kts | 263° |
| 2026-04-22 00:30 | 33.93653 | -118.41179 | 565 ft | 173 kts | 263° |
| 2026-04-22 00:31 | 33.93511 | -118.42660 | 1103 ft | 184 kts | 262° |
| 2026-04-22 00:31 | 33.93344 | -118.44269 | 1428 ft | 204 kts | 263° |
| 2026-04-22 00:31 | 33.93020 | -118.45982 | 1712 ft | 213 kts | 246° |
| 2026-04-22 00:31 | 33.92175 | -118.47490 | 2098 ft | 223 kts | 231° |
| 2026-04-22 00:32 | 33.91146 | -118.48954 | 2468 ft | 235 kts | 232° |
| 2026-04-22 00:32 | 33.90100 | -118.50472 | 2849 ft | 239 kts | 232° |
| 2026-04-22 00:32 | 33.89006 | -118.52019 | 3246 ft | 245 kts | 231° |
| 2026-04-22 00:32 | 33.87886 | -118.53594 | 3633 ft | 249 kts | 231° |
| 2026-04-22 00:33 | 33.86730 | -118.55112 | 4127 ft | 251 kts | 221° |
| 2026-04-22 00:33 | 33.85137 | -118.56027 | 4653 ft | 257 kts | 194° |
| 2026-04-22 00:33 | 33.83332 | -118.55952 | 5179 ft | 265 kts | 171° |
| 2026-04-22 00:33 | 33.81538 | -118.55397 | 5688 ft | 267 kts | 168° |
| 2026-04-22 00:34 | 33.79734 | -118.54826 | 6183 ft | 269 kts | 169° |
| 2026-04-22 00:34 | 33.77920 | -118.54284 | 6697 ft | 269 kts | 170° |
| 2026-04-22 00:34 | 33.76092 | -118.53769 | 7179 ft | 271 kts | 171° |
| 2026-04-22 00:34 | 33.74279 | -118.53275 | 7659 ft | 271 kts | 172° |
| 2026-04-22 00:35 | 33.72430 | -118.52780 | 8160 ft | 273 kts | 172° |
| 2026-04-22 00:35 | 33.70631 | -118.52062 | 8639 ft | 282 kts | 155° |
| 2026-04-22 00:35 | 33.69146 | -118.50456 | 9163 ft | 297 kts | 130° |
| 2026-04-22 00:35 | 33.68238 | -118.48186 | 9696 ft | 307 kts | 114° |
| 2026-04-22 00:36 | 33.67604 | -118.45709 | 10207 ft | 312 kts | 110° |
| 2026-04-22 00:36 | 33.66994 | -118.43186 | 10667 ft | 316 kts | 111° |
| 2026-04-22 00:36 | 33.66328 | -118.40640 | 11019 ft | 323 kts | 113° |
| 2026-04-22 00:36 | 33.65598 | -118.38051 | 11380 ft | 330 kts | 114° |
| 2026-04-22 00:37 | 33.64859 | -118.35402 | 11744 ft | 340 kts | 109° |
| 2026-04-22 00:37 | 33.64455 | -118.32564 | 12134 ft | 352 kts | 97° |
| 2026-04-22 00:37 | 33.64450 | -118.29587 | 12518 ft | 360 kts | 91° |
| 2026-04-22 00:37 | 33.64482 | -118.26555 | 12900 ft | 367 kts | 92° |
| 2026-04-22 00:38 | 33.64494 | -118.23472 | 13286 ft | 373 kts | 92° |
| 2026-04-22 00:38 | 33.64562 | -118.20329 | 13661 ft | 381 kts | 84° |
| 2026-04-22 00:38 | 33.65322 | -118.17267 | 14050 ft | 388 kts | 63° |
| 2026-04-22 00:38 | 33.66890 | -118.14625 | 14379 ft | 390 kts | 41° |
| 2026-04-22 00:39 | 33.69045 | -118.12690 | 14741 ft | 388 kts | 26° |
| 2026-04-22 00:39 | 33.71366 | -118.11098 | 15082 ft | 392 kts | 25° |
| 2026-04-22 00:39 | 33.73725 | -118.09409 | 15454 ft | 398 kts | 27° |
| 2026-04-22 00:39 | 33.76084 | -118.07532 | 15823 ft | 404 kts | 30° |
| 2026-04-22 00:40 | 33.78356 | -118.05584 | 16167 ft | 410 kts | 32° |
| 2026-04-22 00:40 | 33.80671 | -118.03525 | 16428 ft | 418 kts | 32° |
| 2026-04-22 00:40 | 33.83019 | -118.01406 | 16687 ft | 425 kts | 32° |
| 2026-04-22 00:40 | 33.85396 | -117.99255 | 16960 ft | 432 kts | 33° |
| 2026-04-22 00:41 | 33.87860 | -117.97027 | 17225 ft | 439 kts | 32° |
| 2026-04-22 00:41 | 33.90316 | -117.94808 | 17488 ft | 446 kts | 32° |
| 2026-04-22 00:41 | 33.92789 | -117.92567 | 17746 ft | 453 kts | 33° |
| 2026-04-22 00:41 | 33.95318 | -117.90254 | 18001 ft | 460 kts | 33° |
| 2026-04-22 00:42 | 33.97883 | -117.87901 | 18279 ft | 466 kts | 33° |
| 2026-04-22 00:42 | 34.00479 | -117.85518 | 18543 ft | 472 kts | 33° |
| 2026-04-22 00:42 | 34.03116 | -117.83100 | 18773 ft | 478 kts | 33° |
| 2026-04-22 00:42 | 34.05780 | -117.80656 | 19008 ft | 482 kts | 33° |
| 2026-04-22 00:43 | 34.07514 | -117.79037 | 19160 ft | 483 kts | 36° |
| 2026-04-22 00:43 | 34.09977 | -117.76220 | 19395 ft | 490 kts | 45° |
| 2026-04-22 00:43 | 34.12151 | -117.73033 | 19634 ft | 493 kts | 49° |
| 2026-04-22 00:43 | 34.14302 | -117.69799 | 19868 ft | 494 kts | 49° |
| 2026-04-22 00:44 | 34.16476 | -117.66568 | 20113 ft | 496 kts | 48° |
| 2026-04-22 00:44 | 34.18654 | -117.63340 | 20336 ft | 496 kts | 48° |
| 2026-04-22 00:44 | 34.20845 | -117.60090 | 20592 ft | 500 kts | 49° |
| 2026-04-22 00:44 | 34.23032 | -117.56840 | 20832 ft | 499 kts | 49° |
| 2026-04-22 00:45 | 34.25233 | -117.53567 | 21063 ft | 500 kts | 49° |
| 2026-04-22 00:45 | 34.27349 | -117.50415 | 21290 ft | 504 kts | 48° |
| 2026-04-22 00:45 | 34.29529 | -117.47170 | 21626 ft | 504 kts | 49° |
| 2026-04-22 00:45 | 34.31744 | -117.43873 | 21995 ft | 506 kts | 47° |
| 2026-04-22 00:46 | 34.34088 | -117.40695 | 22371 ft | 506 kts | 44° |
| 2026-04-22 00:46 | 34.36576 | -117.37690 | 22756 ft | 506 kts | 40° |
| 2026-04-22 00:46 | 34.39069 | -117.34666 | 23156 ft | 508 kts | 43° |
| 2026-04-22 00:46 | 34.41561 | -117.31641 | 23568 ft | 509 kts | 41° |
| 2026-04-22 00:47 | 34.44095 | -117.28623 | 23922 ft | 510 kts | 41° |
| 2026-04-22 00:47 | 34.46629 | -117.25609 | 24263 ft | 511 kts | 41° |
| 2026-04-22 00:47 | 34.49176 | -117.22583 | 24622 ft | 512 kts | 41° |
| 2026-04-22 00:47 | 34.51732 | -117.19552 | 24955 ft | 514 kts | 41° |
| 2026-04-22 00:48 | 34.54293 | -117.16517 | 25301 ft | 514 kts | 41° |
| 2026-04-22 00:48 | 34.56724 | -117.13640 | 25635 ft | 515 kts | 41° |
| 2026-04-22 00:48 | 34.59298 | -117.10602 | 25981 ft | 516 kts | 41° |
| 2026-04-22 00:48 | 34.61870 | -117.07562 | 26347 ft | 517 kts | 41° |
| 2026-04-22 00:49 | 34.64456 | -117.04505 | 26692 ft | 517 kts | 41° |
| 2026-04-22 00:49 | 34.67005 | -117.01497 | 27035 ft | 517 kts | 41° |
| 2026-04-22 00:49 | 34.69585 | -116.98455 | 27406 ft | 515 kts | 41° |
| 2026-04-22 00:49 | 34.72109 | -116.95479 | 27798 ft | 492 kts | 41° |
| 2026-04-22 00:50 | 34.74411 | -116.92745 | 29062 ft | 447 kts | 41° |
| 2026-04-22 00:50 | 34.76673 | -116.90062 | 28317 ft | 460 kts | 41° |
| 2026-04-22 00:50 | 34.78974 | -116.87320 | 27925 ft | 458 kts | 41° |
| 2026-04-22 00:50 | 34.81235 | -116.84601 | 27694 ft | 458 kts | 42° |
| 2026-04-22 00:51 | 34.83540 | -116.81845 | 27630 ft | 470 kts | 41° |
| 2026-04-22 00:51 | 34.85911 | -116.79063 | 27794 ft | 475 kts | 41° |
| 2026-04-22 00:51 | 34.88297 | -116.76269 | 28173 ft | 474 kts | 41° |
| 2026-04-22 00:51 | 34.90696 | -116.73465 | 28126 ft | 485 kts | 41° |
| 2026-04-22 00:52 | 34.93174 | -116.70579 | 28028 ft | 497 kts | 41° |
| 2026-04-22 00:52 | 34.98218 | -116.64715 | 28279 ft | 509 kts | 41° |
| 2026-04-22 00:52 | 35.00794 | -116.61720 | 28539 ft | 512 kts | 41° |
| 2026-04-22 00:53 | 35.03377 | -116.58714 | 28796 ft | 514 kts | 41° |
| 2026-04-22 00:53 | 35.06004 | -116.55655 | 29074 ft | 517 kts | 41° |
| 2026-04-22 00:53 | 35.08581 | -116.52653 | 29351 ft | 519 kts | 41° |
| 2026-04-22 00:53 | 35.11199 | -116.49602 | 29637 ft | 521 kts | 41° |
| 2026-04-22 00:54 | 35.13830 | -116.46533 | 29922 ft | 523 kts | 41° |
| 2026-04-22 00:54 | 35.16473 | -116.43448 | 30174 ft | 526 kts | 41° |
| 2026-04-22 00:54 | 35.19125 | -116.40347 | 30414 ft | 528 kts | 41° |
| 2026-04-22 00:54 | 35.21784 | -116.37233 | 30657 ft | 530 kts | 41° |
| 2026-04-22 00:55 | 35.24457 | -116.34101 | 30885 ft | 532 kts | 41° |
| 2026-04-22 00:55 | 35.27129 | -116.30971 | 31120 ft | 534 kts | 41° |
| 2026-04-22 00:55 | 35.32524 | -116.24657 | 31607 ft | 538 kts | 41° |
| 2026-04-22 00:56 | 35.35228 | -116.21494 | 31849 ft | 539 kts | 41° |
| 2026-04-22 00:56 | 35.37946 | -116.18315 | 32106 ft | 540 kts | 41° |
| 2026-04-22 00:56 | 35.40668 | -116.15136 | 32362 ft | 542 kts | 41° |
| 2026-04-22 00:56 | 35.43409 | -116.11935 | 32624 ft | 543 kts | 41° |
| 2026-04-22 00:57 | 35.46149 | -116.08738 | 32889 ft | 544 kts | 41° |
| 2026-04-22 00:57 | 35.48893 | -116.05538 | 33150 ft | 545 kts | 41° |
| 2026-04-22 00:57 | 35.51639 | -116.02336 | 33422 ft | 545 kts | 41° |
| 2026-04-22 00:57 | 35.54386 | -115.99134 | 33682 ft | 544 kts | 41° |
| 2026-04-22 00:58 | 35.57094 | -115.95975 | 33933 ft | 543 kts | 41° |
| 2026-04-22 00:58 | 35.59840 | -115.92772 | 34169 ft | 542 kts | 41° |
| 2026-04-22 00:58 | 35.62572 | -115.89589 | 34407 ft | 540 kts | 41° |
| 2026-04-22 00:58 | 35.65298 | -115.86415 | 34637 ft | 540 kts | 41° |
| 2026-04-22 00:59 | 35.68030 | -115.83240 | 34882 ft | 540 kts | 41° |
| 2026-04-22 00:59 | 35.70772 | -115.80057 | 35129 ft | 540 kts | 41° |
| 2026-04-22 00:59 | 35.73506 | -115.76891 | 35362 ft | 540 kts | 41° |
| 2026-04-22 00:59 | 35.76243 | -115.73726 | 35609 ft | 539 kts | 41° |
| 2026-04-22 01:00 | 35.78976 | -115.70567 | 35849 ft | 538 kts | 41° |
| 2026-04-22 01:00 | 35.81708 | -115.67413 | 36100 ft | 538 kts | 41° |
| 2026-04-22 01:00 | 35.84354 | -115.64155 | 36329 ft | 538 kts | 49° |
| 2026-04-22 01:00 | 35.86676 | -115.60610 | 36463 ft | 540 kts | 51° |
| 2026-04-22 01:01 | 35.88981 | -115.56952 | 36597 ft | 541 kts | 52° |
| 2026-04-22 01:01 | 35.91292 | -115.53280 | 36698 ft | 542 kts | 51° |
| 2026-04-22 01:01 | 35.93621 | -115.49604 | 36826 ft | 543 kts | 51° |
| 2026-04-22 01:01 | 35.95931 | -115.45977 | 37473 ft | 530 kts | 51° |
| 2026-04-22 01:02 | 35.98258 | -115.42355 | 36909 ft | 546 kts | 51° |
| 2026-04-22 01:02 | 36.00628 | -115.38657 | 36800 ft | 550 kts | 51° |
| 2026-04-22 01:02 | 36.02978 | -115.34951 | 36903 ft | 550 kts | 51° |
| 2026-04-22 01:02 | 36.05350 | -115.31212 | 36829 ft | 554 kts | 51° |
| 2026-04-22 01:03 | 36.10114 | -115.23709 | 36829 ft | 556 kts | 51° |
| 2026-04-22 01:03 | 36.14894 | -115.16172 | 36825 ft | 557 kts | 51° |
| 2026-04-22 01:04 | 36.19676 | -115.08615 | 36768 ft | 558 kts | 52° |
| 2026-04-22 01:04 | 36.24465 | -115.01031 | 36765 ft | 559 kts | 52° |
| 2026-04-22 01:05 | 36.29255 | -114.93429 | 36762 ft | 560 kts | 52° |
| 2026-04-22 01:05 | 36.34043 | -114.85812 | 36757 ft | 560 kts | 52° |
| 2026-04-22 01:06 | 36.38830 | -114.78180 | 36722 ft | 560 kts | 52° |
| 2026-04-22 01:06 | 36.43606 | -114.70548 | 36704 ft | 559 kts | 52° |
| 2026-04-22 01:07 | 36.48349 | -114.62951 | 36694 ft | 559 kts | 53° |
| 2026-04-22 01:07 | 36.53114 | -114.55302 | 36696 ft | 559 kts | 53° |
| 2026-04-22 01:08 | 36.57873 | -114.47644 | 36699 ft | 559 kts | 53° |
| 2026-04-22 01:08 | 36.62620 | -114.39992 | 36700 ft | 560 kts | 53° |
| 2026-04-22 01:09 | 36.67370 | -114.32314 | 36707 ft | 560 kts | 53° |
| 2026-04-22 01:09 | 36.72096 | -114.24661 | 36715 ft | 560 kts | 53° |
| 2026-04-22 01:10 | 36.76839 | -114.16960 | 36724 ft | 560 kts | 53° |
| 2026-04-22 01:10 | 36.81579 | -114.09248 | 36725 ft | 560 kts | 53° |
| 2026-04-22 01:11 | 36.86312 | -114.01529 | 36752 ft | 559 kts | 53° |
| 2026-04-22 01:11 | 36.91033 | -113.93812 | 36761 ft | 559 kts | 54° |
| 2026-04-22 01:12 | 36.95745 | -113.86093 | 36763 ft | 559 kts | 54° |
| 2026-04-22 01:12 | 37.00462 | -113.78346 | 36792 ft | 559 kts | 54° |
| 2026-04-22 01:13 | 37.05084 | -113.70544 | 36830 ft | 557 kts | 59° |
| 2026-04-22 01:13 | 37.08977 | -113.62165 | 36843 ft | 556 kts | 62° |
| 2026-04-22 01:14 | 37.12849 | -113.53841 | 36836 ft | 556 kts | 62° |
| 2026-04-22 01:14 | 37.16739 | -113.45450 | 36826 ft | 556 kts | 62° |
| 2026-04-22 01:15 | 37.20611 | -113.37055 | 36812 ft | 556 kts | 62° |
| 2026-04-22 01:15 | 37.24481 | -113.28639 | 36810 ft | 556 kts | 62° |
| 2026-04-22 01:16 | 37.28343 | -113.20219 | 36806 ft | 555 kts | 63° |
| 2026-04-22 01:16 | 37.32162 | -113.11870 | 36811 ft | 554 kts | 62° |
| 2026-04-22 01:17 | 37.35827 | -113.03838 | 36836 ft | 554 kts | 62° |
| 2026-04-22 01:17 | 37.39647 | -112.95447 | 36853 ft | 552 kts | 62° |
| 2026-04-22 01:18 | 37.43458 | -112.87057 | 36862 ft | 551 kts | 62° |
| 2026-04-22 01:18 | 37.47235 | -112.78716 | 36865 ft | 550 kts | 62° |
| 2026-04-22 01:19 | 37.51027 | -112.70320 | 36868 ft | 548 kts | 62° |
| 2026-04-22 01:19 | 37.54762 | -112.62031 | 36872 ft | 546 kts | 62° |
| 2026-04-22 01:20 | 37.58445 | -112.53835 | 36906 ft | 544 kts | 62° |
| 2026-04-22 01:20 | 37.62173 | -112.45518 | 36948 ft | 543 kts | 62° |
| 2026-04-22 01:21 | 37.65890 | -112.37206 | 37018 ft | 542 kts | 63° |
| 2026-04-22 01:21 | 37.69885 | -112.29170 | 37051 ft | 544 kts | 52° |
| 2026-04-22 01:22 | 37.74958 | -112.22098 | 37091 ft | 544 kts | 48° |
| 2026-04-22 01:22 | 37.80086 | -112.15020 | 37084 ft | 544 kts | 48° |
| 2026-04-22 01:23 | 37.85171 | -112.07995 | 37042 ft | 544 kts | 48° |
| 2026-04-22 01:23 | 37.90274 | -112.00941 | 36996 ft | 542 kts | 48° |
| 2026-04-22 01:24 | 37.95379 | -111.93868 | 36948 ft | 541 kts | 48° |
| 2026-04-22 01:24 | 37.99529 | -111.88101 | 36905 ft | 540 kts | 49° |
| 2026-04-22 01:25 | 38.04261 | -111.81510 | 36903 ft | 539 kts | 49° |
| 2026-04-22 01:25 | 38.08471 | -111.75633 | 36903 ft | 537 kts | 49° |
| 2026-04-22 01:26 | 38.13491 | -111.68614 | 36904 ft | 536 kts | 49° |
| 2026-04-22 01:26 | 38.18480 | -111.61620 | 36897 ft | 534 kts | 49° |
| 2026-04-22 01:27 | 38.23464 | -111.54620 | 36887 ft | 534 kts | 49° |
| 2026-04-22 01:27 | 38.28430 | -111.47631 | 36879 ft | 532 kts | 49° |
| 2026-04-22 01:28 | 38.33392 | -111.40630 | 36871 ft | 532 kts | 49° |
| 2026-04-22 01:28 | 38.38328 | -111.33652 | 36848 ft | 532 kts | 49° |
| 2026-04-22 01:29 | 38.43294 | -111.26615 | 36836 ft | 532 kts | 49° |
| 2026-04-22 01:29 | 38.48241 | -111.19589 | 36822 ft | 532 kts | 49° |
| 2026-04-22 01:30 | 38.53194 | -111.12540 | 36811 ft | 532 kts | 49° |
| 2026-04-22 01:30 | 38.58141 | -111.05482 | 36818 ft | 533 kts | 49° |
| 2026-04-22 01:31 | 38.63079 | -110.98423 | 36823 ft | 532 kts | 49° |
| 2026-04-22 01:31 | 38.67997 | -110.91376 | 36824 ft | 532 kts | 49° |
| 2026-04-22 01:32 | 38.72946 | -110.84269 | 36822 ft | 532 kts | 49° |
| 2026-04-22 01:32 | 38.77846 | -110.77216 | 36804 ft | 531 kts | 49° |
| 2026-04-22 01:33 | 38.82747 | -110.70145 | 36804 ft | 530 kts | 49° |
| 2026-04-22 01:33 | 38.87658 | -110.63045 | 36802 ft | 530 kts | 49° |
| 2026-04-22 01:34 | 38.92525 | -110.55992 | 36803 ft | 529 kts | 49° |
| 2026-04-22 01:34 | 38.97422 | -110.48879 | 36798 ft | 529 kts | 49° |
| 2026-04-22 01:35 | 39.02291 | -110.41791 | 36803 ft | 529 kts | 49° |
| 2026-04-22 01:35 | 39.07152 | -110.34699 | 36802 ft | 529 kts | 49° |
| 2026-04-22 01:36 | 39.11994 | -110.27619 | 36801 ft | 528 kts | 49° |
| 2026-04-22 01:36 | 39.16853 | -110.20498 | 36811 ft | 527 kts | 49° |
| 2026-04-22 01:37 | 39.21703 | -110.13374 | 36817 ft | 526 kts | 49° |
| 2026-04-22 01:37 | 39.26495 | -110.06321 | 36832 ft | 523 kts | 49° |
| 2026-04-22 01:38 | 39.31313 | -109.99209 | 36853 ft | 523 kts | 49° |
| 2026-04-22 01:38 | 39.36074 | -109.92168 | 36856 ft | 521 kts | 49° |
| 2026-04-22 01:39 | 39.40838 | -109.85106 | 36855 ft | 520 kts | 49° |
| 2026-04-22 01:39 | 39.45607 | -109.78021 | 36857 ft | 520 kts | 49° |
| 2026-04-22 01:40 | 39.50329 | -109.70990 | 36852 ft | 520 kts | 49° |
| 2026-04-22 01:40 | 39.55099 | -109.63873 | 36845 ft | 520 kts | 49° |
| 2026-04-22 01:41 | 39.59817 | -109.56816 | 36842 ft | 521 kts | 50° |
| 2026-04-22 01:41 | 39.64582 | -109.49674 | 36839 ft | 521 kts | 50° |
| 2026-04-22 01:42 | 39.69322 | -109.42551 | 36831 ft | 521 kts | 50° |
| 2026-04-22 01:42 | 39.74064 | -109.35410 | 36828 ft | 522 kts | 50° |
| 2026-04-22 01:43 | 39.78782 | -109.28288 | 36818 ft | 522 kts | 50° |
| 2026-04-22 01:43 | 39.83521 | -109.21118 | 36817 ft | 522 kts | 50° |
| 2026-04-22 01:44 | 39.88227 | -109.13980 | 36814 ft | 523 kts | 50° |
| 2026-04-22 01:44 | 39.92955 | -109.06794 | 36813 ft | 523 kts | 50° |
| 2026-04-22 01:45 | 39.97681 | -108.99593 | 36810 ft | 523 kts | 51° |
| 2026-04-22 01:45 | 40.02412 | -108.92369 | 36812 ft | 522 kts | 51° |
| 2026-04-22 01:46 | 40.07132 | -108.85145 | 36825 ft | 522 kts | 51° |
| 2026-04-22 01:46 | 40.11842 | -108.77918 | 36828 ft | 522 kts | 51° |
| 2026-04-22 01:47 | 40.16530 | -108.70709 | 36824 ft | 522 kts | 51° |
| 2026-04-22 01:47 | 40.21243 | -108.63445 | 36827 ft | 522 kts | 51° |
| 2026-04-22 01:48 | 40.25950 | -108.56171 | 36826 ft | 522 kts | 51° |